createdAt,value
2019-05-02T07:08:14.266Z,17.37
2019-05-02T07:10:45.475Z,14.63
2019-05-02T07:13:18.479Z,15.88
2019-05-02T07:16:10.325Z,12.75
2019-05-02T07:18:47.394Z,12.20
2019-05-02T07:21:23.419Z,14.00
2019-05-02T07:23:53.518Z,14.45
2019-05-02T07:26:26.412Z,13.83
2019-05-02T07:28:57.261Z,12.93
2019-05-02T07:31:28.034Z,13.83
2019-05-02T07:34:08.029Z,11.70
2019-05-02T07:36:38.418Z,15.15
2019-05-02T07:39:10.863Z,16.05
2019-05-02T07:41:43.006Z,11.68
2019-05-02T07:44:15.465Z,16.35
2019-05-02T07:46:51.893Z,13.40
2019-05-02T07:49:21.005Z,15.30
2019-05-02T07:51:57.627Z,12.20
2019-05-02T07:56:57.541Z,13.15
2019-05-02T07:59:30.012Z,14.58
2019-05-02T08:02:02.452Z,19.35
2019-05-02T08:04:34.539Z,21.12
2019-05-02T08:07:05.678Z,18.82
2019-05-02T08:09:39.134Z,19.57
2019-05-02T08:12:10.426Z,19.62
2019-05-02T08:14:42.493Z,18.80
2019-05-02T08:17:16.979Z,18.20
2019-05-02T08:19:45.799Z,14.40
2019-05-02T08:22:16.732Z,13.62
2019-05-02T08:24:47.674Z,13.40
2019-05-02T08:27:24.156Z,14.58
2019-05-02T08:29:55.439Z,19.48
2019-05-02T08:32:27.682Z,16.57
2019-05-02T08:35:02.076Z,17.07
2019-05-02T08:37:40.697Z,16.40
2019-05-02T08:40:10.598Z,16.62
2019-05-02T08:42:41.021Z,12.98
2019-05-02T08:45:12.676Z,14.10
2019-05-02T08:47:44.740Z,11.35
2019-05-02T08:50:15.682Z,17.17
2019-05-02T08:52:48.162Z,13.65
2019-05-02T08:55:19.399Z,10.95
2019-05-02T08:57:50.132Z,11.85
2019-05-02T09:00:21.474Z,10.68
2019-05-02T09:02:52.309Z,12.50
2019-05-02T09:05:24.492Z,12.78
2019-05-02T09:07:55.338Z,14.70
2019-05-02T09:10:26.155Z,12.30
2019-05-02T09:13:02.632Z,14.53
2019-05-02T09:15:35.239Z,16.65
2019-05-02T09:18:06.676Z,17.30
2019-05-02T09:20:39.122Z,14.68
2019-05-02T09:23:12.412Z,16.57
2019-05-02T09:25:43.895Z,14.28
2019-05-02T09:28:17.063Z,13.22
2019-05-02T09:30:48.683Z,12.93
2019-05-02T09:33:20.050Z,12.07
2019-05-02T09:35:51.616Z,12.93
2019-05-02T09:38:23.975Z,14.18
2019-05-02T09:40:56.383Z,13.10
2019-05-02T09:43:29.277Z,11.57
2019-05-02T09:45:59.644Z,13.53
2019-05-02T09:48:32.114Z,16.62
2019-05-02T09:51:12.514Z,13.00
2019-05-02T09:53:37.264Z,16.80
2019-05-02T09:56:09.408Z,16.60
2019-05-02T09:58:42.049Z,13.53
2019-05-02T10:01:34.608Z,15.13
2019-05-02T10:04:08.127Z,11.15
2019-05-02T10:06:42.371Z,12.70
2019-05-02T10:09:12.694Z,14.90
2019-05-02T10:11:43.731Z,10.60
2019-05-02T10:14:15.385Z,16.77
2019-05-02T10:16:47.258Z,14.33
2019-05-02T10:19:25.898Z,16.25
2019-05-02T10:21:56.552Z,16.00
2019-05-02T10:24:27.775Z,14.20
2019-05-02T10:27:04.131Z,20.68
2019-05-02T10:29:33.723Z,22.37
2019-05-02T10:32:07.452Z,18.55
2019-05-02T10:34:42.196Z,17.55
2019-05-02T10:37:14.101Z,14.20
2019-05-02T10:39:47.795Z,14.28
2019-05-02T10:42:21.964Z,17.15
2019-05-02T10:44:53.461Z,15.58
2019-05-02T10:47:24.763Z,14.68
2019-05-02T10:49:57.978Z,11.28
2019-05-02T10:52:33.968Z,12.10
2019-05-02T10:55:02.757Z,11.12
2019-05-02T10:57:33.678Z,10.88
2019-05-02T11:00:13.704Z,13.43
2019-05-02T11:02:56.434Z,9.03
2019-05-02T11:05:28.712Z,7.10
2019-05-02T11:08:06.234Z,7.10
2019-05-02T11:10:38.767Z,7.00
2019-05-02T11:13:28.362Z,7.10
2019-05-02T11:16:17.416Z,15.08
2019-05-02T11:18:53.569Z,6.17
2019-05-02T11:21:24.743Z,4.65
2019-05-02T11:23:57.168Z,14.70
2019-05-02T11:26:28.118Z,11.43
2019-05-02T11:29:02.755Z,14.73
2019-05-02T11:31:32.767Z,17.73
2019-05-02T11:34:04.233Z,17.60
2019-05-02T11:36:36.324Z,20.80
2019-05-02T11:39:18.953Z,26.07
2019-05-02T11:41:42.857Z,21.30
2019-05-02T11:44:13.464Z,23.12
2019-05-02T11:46:46.942Z,22.50
2019-05-02T11:49:17.327Z,23.07
2019-05-02T11:51:52.618Z,21.80
2019-05-02T11:56:55.039Z,13.48
2019-05-02T11:59:27.975Z,14.83
2019-05-02T12:02:09.417Z,10.43
2019-05-02T12:04:47.316Z,6.22
2019-05-02T12:07:17.017Z,8.33
2019-05-02T12:09:55.458Z,5.47
2019-05-02T12:12:22.742Z,4.95
2019-05-02T12:14:56.600Z,4.78
2019-05-02T12:17:30.082Z,5.50
2019-05-02T12:20:02.448Z,10.03
2019-05-02T12:22:35.047Z,3.87
2019-05-02T12:25:07.198Z,3.95
2019-05-02T12:27:39.369Z,4.78
2019-05-02T12:30:13.252Z,11.05
2019-05-02T12:32:44.004Z,5.62
2019-05-02T12:35:15.769Z,6.95
2019-05-02T12:37:53.970Z,5.40
2019-05-02T12:40:24.060Z,10.05
2019-05-02T12:42:56.168Z,8.03
2019-05-02T12:45:28.129Z,3.72
2019-05-02T12:48:02.245Z,2.33
2019-05-02T12:50:34.892Z,2.67
2019-05-02T12:53:05.850Z,3.58
2019-05-02T12:55:38.543Z,7.75
2019-05-02T12:58:12.510Z,8.78
2019-05-02T13:00:43.657Z,3.77
2019-05-02T13:03:18.685Z,13.72
2019-05-02T13:05:52.124Z,7.85
2019-05-02T13:08:25.301Z,18.12
2019-05-02T13:11:02.093Z,16.75
2019-05-02T13:13:29.811Z,5.47
2019-05-02T13:16:03.500Z,4.17
2019-05-02T13:18:37.118Z,4.65
2019-05-02T13:21:13.388Z,4.53
2019-05-02T13:23:53.124Z,5.65
2019-05-02T13:26:27.237Z,3.95
2019-05-02T13:28:58.791Z,1.75
2019-05-02T13:31:33.923Z,3.90
2019-05-02T13:34:16.536Z,3.12
2019-05-02T13:36:52.899Z,3.75
2019-05-02T13:39:26.531Z,2.52
2019-05-02T13:41:57.125Z,6.50
2019-05-02T13:44:33.227Z,1.77
2019-05-02T13:47:05.954Z,2.12
2019-05-02T13:49:51.441Z,3.47
2019-05-02T13:52:16.424Z,3.50
2019-05-02T13:54:58.949Z,2.10
2019-05-02T13:57:35.057Z,8.23
2019-05-02T14:00:03.279Z,3.85
2019-05-02T14:02:42.802Z,5.62
2019-05-02T14:05:16.135Z,4.60
2019-05-02T14:07:57.094Z,11.80
2019-05-02T14:10:32.126Z,4.12
2019-05-02T14:13:03.685Z,2.58
2019-05-02T14:15:36.351Z,2.15
2019-05-02T14:18:08.188Z,3.62
2019-05-02T14:20:39.602Z,8.78
2019-05-02T14:23:12.842Z,6.55
2019-05-02T14:25:45.516Z,4.37
2019-05-02T14:28:16.864Z,5.45
2019-05-02T14:30:47.423Z,4.35
2019-05-02T14:33:26.734Z,3.58
2019-05-02T14:35:58.791Z,9.63
2019-05-02T14:38:32.012Z,4.75
2019-05-02T14:41:13.257Z,2.77
2019-05-02T14:43:54.032Z,6.45
2019-05-02T14:46:35.392Z,4.20
2019-05-02T14:49:02.937Z,3.25
2019-05-02T14:51:36.981Z,11.93
2019-05-02T14:54:09.587Z,8.68
2019-05-02T14:56:46.288Z,4.28
2019-05-02T14:59:19.876Z,8.15
2019-05-02T15:01:52.765Z,7.53
2019-05-02T15:04:24.793Z,6.08
2019-05-02T15:06:58.062Z,7.10
2019-05-02T15:09:32.666Z,4.87
2019-05-02T15:12:08.254Z,7.08
2019-05-02T15:14:49.729Z,6.93
2019-05-02T15:17:22.740Z,8.90
2019-05-02T15:19:55.488Z,15.57
2019-05-02T15:22:27.621Z,7.37
2019-05-02T15:25:00.137Z,11.40
2019-05-02T15:27:40.143Z,11.05
2019-05-02T15:30:08.146Z,11.18
2019-05-02T15:32:46.427Z,9.88
2019-05-02T15:35:29.375Z,10.60
2019-05-02T15:38:02.558Z,12.35
2019-05-02T15:40:48.139Z,11.70
2019-05-02T15:43:12.636Z,13.75
2019-05-02T15:45:45.225Z,9.13
2019-05-02T15:48:25.538Z,5.27
2019-05-02T15:50:54.590Z,10.95
2019-05-02T15:53:39.029Z,8.10
2019-05-02T15:56:18.763Z,10.35
2019-05-02T15:58:42.588Z,12.55
2019-05-02T16:01:18.891Z,6.65
2019-05-02T16:03:54.638Z,5.70
2019-05-02T16:06:31.744Z,10.40
2019-05-02T16:09:02.444Z,12.00
2019-05-02T16:11:34.821Z,17.23
2019-05-02T16:14:05.980Z,17.95
2019-05-02T16:16:40.776Z,11.90
2019-05-02T16:19:16.578Z,8.18
2019-05-02T16:21:53.624Z,7.78
2019-05-02T16:24:28.856Z,7.67
2019-05-02T16:27:01.607Z,6.90
2019-05-02T16:29:33.605Z,5.35
2019-05-02T16:32:09.326Z,4.85
2019-05-02T16:34:54.542Z,8.70
2019-05-02T16:37:24.469Z,10.03
2019-05-02T16:39:54.958Z,7.47
2019-05-02T16:42:26.100Z,6.28
2019-05-02T16:44:58.574Z,7.35
2019-05-02T16:47:29.318Z,5.92
2019-05-02T16:50:02.728Z,6.58
2019-05-02T16:52:38.053Z,5.95
2019-05-02T16:55:13.627Z,11.95
2019-05-02T16:57:42.393Z,9.68
2019-05-02T17:00:19.850Z,5.33
2019-05-02T17:02:51.364Z,5.28
2019-05-02T17:05:24.300Z,6.15
2019-05-02T17:07:59.385Z,7.58
2019-05-02T17:10:42.362Z,13.70
2019-05-02T17:13:14.830Z,19.52
2019-05-02T17:15:45.567Z,8.58
2019-05-02T17:18:18.251Z,5.60
2019-05-02T17:20:54.954Z,9.03
2019-05-02T17:23:24.829Z,8.43
2019-05-02T17:25:56.382Z,13.32
2019-05-02T17:28:28.346Z,13.35
2019-05-02T17:31:00.402Z,10.67
2019-05-02T17:33:32.428Z,22.93
2019-05-02T17:36:04.124Z,24.32
2019-05-02T17:38:39.048Z,29.63
2019-05-02T17:41:13.213Z,16.40
2019-05-02T17:43:45.916Z,15.78
2019-05-02T17:46:21.938Z,11.78
2019-05-02T17:48:53.988Z,15.08
2019-05-02T17:51:37.515Z,13.65
2019-05-02T17:54:08.799Z,8.60
2019-05-02T17:56:42.064Z,7.62
2019-05-02T17:59:17.069Z,7.58
2019-05-02T18:01:48.616Z,8.35
2019-05-02T18:04:21.538Z,14.70
2019-05-02T18:06:55.092Z,10.78
2019-05-02T18:09:26.320Z,13.58
2019-05-02T18:11:57.489Z,15.30
2019-05-02T18:14:30.197Z,23.75
2019-05-02T18:17:02.315Z,22.05
2019-05-02T18:19:35.585Z,29.07
2019-05-02T18:22:22.457Z,27.10
2019-05-02T18:24:46.472Z,29.55
2019-05-02T18:27:17.370Z,27.45
2019-05-02T18:29:51.533Z,33.83
2019-05-02T18:32:26.116Z,28.52
2019-05-02T18:35:04.330Z,44.80
2019-05-02T18:37:37.235Z,41.63
2019-05-02T18:40:07.809Z,41.18
2019-05-02T18:42:38.834Z,34.95
2019-05-02T18:45:28.572Z,28.73
2019-05-02T18:48:05.176Z,30.12
2019-05-02T18:50:46.375Z,29.15
2019-05-02T18:53:18.506Z,28.40
2019-05-02T18:55:51.833Z,29.48
2019-05-02T18:58:26.789Z,29.32
2019-05-02T19:00:58.090Z,32.05
2019-05-02T19:03:33.357Z,28.05
2019-05-02T19:06:03.957Z,29.10
2019-05-02T19:08:46.829Z,27.45
2019-05-02T19:11:12.625Z,21.60
2019-05-02T19:13:46.001Z,18.50
2019-05-02T19:16:23.865Z,19.20
2019-05-02T19:18:57.156Z,19.40
2019-05-02T19:21:30.833Z,18.98
2019-05-02T19:24:02.336Z,15.60
2019-05-02T19:26:35.417Z,14.63
2019-05-02T19:29:17.174Z,20.60
2019-05-02T19:31:47.528Z,11.35
2019-05-02T19:34:22.756Z,15.43
2019-05-02T19:36:52.886Z,9.35
2019-05-02T19:39:26.118Z,8.85
2019-05-02T19:42:01.621Z,10.70
2019-05-02T19:44:34.146Z,9.83
2019-05-02T19:47:08.448Z,9.55
2019-05-02T19:52:12.861Z,15.15
2019-05-02T19:54:43.757Z,9.28
2019-05-02T19:57:17.209Z,10.15
2019-05-02T19:59:49.057Z,9.20
2019-05-02T20:02:19.752Z,8.50
2019-05-02T20:04:52.060Z,14.13
2019-05-02T20:07:26.145Z,11.55
2019-05-02T20:09:59.235Z,20.02
2019-05-02T20:12:31.403Z,15.78
2019-05-02T20:15:03.872Z,12.37
2019-05-02T20:17:34.350Z,11.08
2019-05-02T20:20:14.449Z,16.75
2019-05-02T20:22:46.310Z,17.17
2019-05-02T20:25:17.143Z,15.25
2019-05-02T20:27:48.215Z,18.75
2019-05-02T20:30:22.502Z,14.83
2019-05-02T20:32:55.584Z,15.53
2019-05-02T20:35:28.270Z,16.35
2019-05-02T20:37:59.145Z,18.40
2019-05-02T20:40:33.432Z,17.57
2019-05-02T20:43:05.278Z,12.37
2019-05-02T20:45:37.353Z,10.35
2019-05-02T20:48:08.805Z,12.95
2019-05-02T20:50:43.004Z,13.05
2019-05-02T20:53:14.817Z,9.80
2019-05-02T20:55:45.491Z,12.90
2019-05-02T20:58:16.530Z,14.98
2019-05-02T21:01:04.750Z,14.95
2019-05-02T21:03:23.624Z,8.38
2019-05-02T21:06:06.299Z,7.42
2019-05-02T21:08:57.963Z,14.83
2019-05-02T21:11:29.910Z,10.25
2019-05-02T21:14:01.720Z,11.60
2019-05-02T21:16:35.993Z,10.23
2019-05-02T21:19:07.547Z,10.03
2019-05-02T21:21:42.528Z,8.98
2019-05-02T21:24:14.438Z,14.87
2019-05-02T21:26:46.305Z,9.95
2019-05-02T21:29:17.548Z,13.88
2019-05-02T21:31:51.966Z,15.48
2019-05-02T21:34:23.102Z,8.67
2019-05-02T21:36:53.972Z,12.50
2019-05-02T21:39:24.667Z,12.85
2019-05-02T21:41:57.755Z,12.57
2019-05-02T21:44:34.253Z,13.72
2019-05-02T21:47:05.941Z,12.40
2019-05-02T21:49:47.331Z,12.90
2019-05-02T21:52:22.581Z,16.05
2019-05-02T21:54:57.219Z,13.28
2019-05-02T21:57:27.854Z,12.25
2019-05-02T22:00:02.415Z,13.98
2019-05-02T22:02:34.031Z,12.35
2019-05-02T22:05:06.378Z,12.88
2019-05-02T22:07:37.168Z,15.53
2019-05-02T22:10:08.871Z,16.60
2019-05-02T22:12:39.326Z,15.90
2019-05-02T22:15:12.746Z,10.15
2019-05-02T22:17:45.089Z,10.82
2019-05-02T22:20:18.676Z,15.50
2019-05-02T22:22:52.031Z,15.10
2019-05-02T22:25:24.342Z,12.73
2019-05-02T22:27:55.451Z,14.63
2019-05-02T22:30:27.641Z,14.43
2019-05-02T22:33:02.666Z,12.63
2019-05-02T22:35:32.811Z,12.68
2019-05-02T22:38:24.621Z,10.23
2019-05-02T22:40:57.991Z,14.23
2019-05-02T22:46:00.920Z,16.80
2019-05-02T22:48:32.470Z,12.78
2019-05-02T22:51:05.152Z,17.10
2019-05-02T22:53:36.601Z,9.35
2019-05-02T22:56:13.214Z,12.93
2019-05-02T22:58:44.620Z,12.70
2019-05-02T23:01:16.273Z,11.97
2019-05-02T23:03:49.553Z,11.43
2019-05-02T23:06:22.456Z,11.03
2019-05-02T23:08:55.389Z,13.85
2019-05-02T23:11:27.805Z,11.85
2019-05-02T23:14:01.782Z,13.05
2019-05-02T23:16:34.648Z,13.38
2019-05-02T23:19:07.717Z,13.15
2019-05-02T23:21:41.917Z,16.70
2019-05-02T23:26:51.817Z,19.10
2019-05-02T23:29:24.128Z,13.62
2019-05-02T23:31:55.010Z,17.75
2019-05-02T23:34:27.060Z,15.80
2019-05-02T23:36:57.667Z,12.00
2019-05-02T23:39:28.883Z,13.78
2019-05-02T23:42:03.621Z,16.50
2019-05-02T23:44:35.171Z,15.53
2019-05-02T23:47:07.504Z,16.95
2019-05-02T23:49:38.529Z,17.70
2019-05-02T23:52:11.743Z,13.68
2019-05-02T23:54:50.087Z,13.35
2019-05-02T23:57:16.951Z,15.48
2019-05-02T23:59:51.794Z,14.75
